sensor_id;sensor_type;location;lat;lon;timestamp;pressure;altitude;pressure_sealevel;temperature;humidity
72794;BME280;63436;26.334;50.194;2023-04-08T00:01:53;101433.72;;;28.48;22.53
72794;BME280;63436;26.334;50.194;2023-04-08T00:04:19;101432.73;;;28.44;22.16
72794;BME280;63436;26.334;50.194;2023-04-08T00:06:44;101425.14;;;28.64;22.05
72794;BME280;63436;26.334;50.194;2023-04-08T00:09:10;101424.76;;;29.64;20.82
72794;BME280;63436;26.334;50.194;2023-04-08T00:11:35;101420.66;;;29.18;20.17
72794;BME280;63436;26.334;50.194;2023-04-08T00:14:02;101423.44;;;29.25;20.40
72794;BME280;63436;26.334;50.194;2023-04-08T00:16:26;101427.26;;;29.04;20.06
72794;BME280;63436;26.334;50.194;2023-04-08T00:18:52;101427.34;;;29.03;19.74
72794;BME280;63436;26.334;50.194;2023-04-08T00:21:17;101428.31;;;28.81;19.80
72794;BME280;63436;26.334;50.194;2023-04-08T00:23:42;101434.16;;;28.65;20.04
72794;BME280;63436;26.334;50.194;2023-04-08T00:26:08;101433.02;;;28.71;19.81
72794;BME280;63436;26.334;50.194;2023-04-08T00:28:33;101434.67;;;29.26;19.17
72794;BME280;63436;26.334;50.194;2023-04-08T00:30:58;101433.78;;;28.58;19.69
72794;BME280;63436;26.334;50.194;2023-04-08T00:33:24;101430.26;;;28.97;19.26
72794;BME280;63436;26.334;50.194;2023-04-08T00:35:50;101439.04;;;28.34;20.03
72794;BME280;63436;26.334;50.194;2023-04-08T00:38:15;101439.34;;;28.61;19.38
72794;BME280;63436;26.334;50.194;2023-04-08T00:40:40;101438.06;;;29.00;18.99
72794;BME280;63436;26.334;50.194;2023-04-08T00:43:06;101435.61;;;29.19;19.05
72794;BME280;63436;26.334;50.194;2023-04-08T00:45:32;101441.34;;;28.52;19.66
72794;BME280;63436;26.334;50.194;2023-04-08T00:47:56;101446.65;;;27.90;21.23
72794;BME280;63436;26.334;50.194;2023-04-08T00:50:21;101449.74;;;28.28;21.23
72794;BME280;63436;26.334;50.194;2023-04-08T00:52:46;101451.61;;;28.13;21.02
72794;BME280;63436;26.334;50.194;2023-04-08T00:55:12;101457.65;;;27.96;21.44
72794;BME280;63436;26.334;50.194;2023-04-08T00:57:37;101460.77;;;27.76;21.59
72794;BME280;63436;26.334;50.194;2023-04-08T01:00:03;101460.17;;;28.49;20.98
72794;BME280;63436;26.334;50.194;2023-04-08T01:02:35;101459.40;;;27.92;20.98
72794;BME280;63436;26.334;50.194;2023-04-08T01:04:58;101461.92;;;27.41;21.58
72794;BME280;63436;26.334;50.194;2023-04-08T01:07:24;101455.92;;;28.20;21.10
72794;BME280;63436;26.334;50.194;2023-04-08T01:09:47;101455.71;;;28.08;20.72
72794;BME280;63436;26.334;50.194;2023-04-08T01:12:14;101457.39;;;27.93;20.61
72794;BME280;63436;26.334;50.194;2023-04-08T01:14:39;101458.33;;;28.30;20.39
72794;BME280;63436;26.334;50.194;2023-04-08T01:17:03;101464.30;;;28.31;19.95
72794;BME280;63436;26.334;50.194;2023-04-08T01:19:31;101463.89;;;28.14;20.18
72794;BME280;63436;26.334;50.194;2023-04-08T01:21:54;101459.67;;;28.37;19.47
72794;BME280;63436;26.334;50.194;2023-04-08T01:24:25;101464.87;;;27.96;20.03
72794;BME280;63436;26.334;50.194;2023-04-08T01:26:44;101472.17;;;27.96;19.99
72794;BME280;63436;26.334;50.194;2023-04-08T01:29:10;101479.57;;;27.88;20.34
72794;BME280;63436;26.334;50.194;2023-04-08T01:31:35;101489.20;;;27.68;20.31
72794;BME280;63436;26.334;50.194;2023-04-08T01:34:00;101488.47;;;28.13;19.66
72794;BME280;63436;26.334;50.194;2023-04-08T01:36:25;101492.37;;;28.57;19.09
72794;BME280;63436;26.334;50.194;2023-04-08T01:38:50;101503.65;;;28.97;18.61
72794;BME280;63436;26.334;50.194;2023-04-08T01:41:17;101511.15;;;29.15;18.80
72794;BME280;63436;26.334;50.194;2023-04-08T01:43:41;101513.25;;;28.97;18.69
72794;BME280;63436;26.334;50.194;2023-04-08T01:46:07;101517.96;;;29.10;18.68
72794;BME280;63436;26.334;50.194;2023-04-08T01:48:31;101526.23;;;29.00;18.86
72794;BME280;63436;26.334;50.194;2023-04-08T01:50:58;101537.73;;;28.24;20.15
72794;BME280;63436;26.334;50.194;2023-04-08T01:53:22;101537.68;;;27.94;20.84
72794;BME280;63436;26.334;50.194;2023-04-08T01:55:52;101537.97;;;28.44;20.23
72794;BME280;63436;26.334;50.194;2023-04-08T01:58:19;101540.41;;;29.10;19.88
72794;BME280;63436;26.334;50.194;2023-04-08T02:00:40;101546.35;;;28.02;21.14
72794;BME280;63436;26.334;50.194;2023-04-08T02:03:05;101550.52;;;27.62;21.93
72794;BME280;63436;26.334;50.194;2023-04-08T02:05:30;101555.29;;;27.44;22.22
72794;BME280;63436;26.334;50.194;2023-04-08T02:07:55;101562.29;;;27.32;22.59
72794;BME280;63436;26.334;50.194;2023-04-08T02:10:20;101570.35;;;27.89;22.06
72794;BME280;63436;26.334;50.194;2023-04-08T02:12:46;101577.40;;;27.50;21.75
72794;BME280;63436;26.334;50.194;2023-04-08T02:15:11;101575.47;;;28.10;21.08
72794;BME280;63436;26.334;50.194;2023-04-08T02:17:43;101576.97;;;28.81;20.00
72794;BME280;63436;26.334;50.194;2023-04-08T02:20:06;101582.33;;;27.48;21.39
72794;BME280;63436;26.334;50.194;2023-04-08T02:22:32;101589.99;;;27.95;21.92
72794;BME280;63436;26.334;50.194;2023-04-08T02:25:01;101586.80;;;28.23;20.84
72794;BME280;63436;26.334;50.194;2023-04-08T02:27:19;101582.80;;;28.49;20.31
72794;BME280;63436;26.334;50.194;2023-04-08T02:29:46;101588.28;;;28.37;20.53
72794;BME280;63436;26.334;50.194;2023-04-08T02:32:10;101597.78;;;27.96;21.28
72794;BME280;63436;26.334;50.194;2023-04-08T02:34:35;101598.83;;;28.03;21.13
72794;BME280;63436;26.334;50.194;2023-04-08T02:37:01;101596.63;;;28.60;20.79
72794;BME280;63436;26.334;50.194;2023-04-08T02:39:30;101596.06;;;28.46;20.89
72794;BME280;63436;26.334;50.194;2023-04-08T02:41:51;101592.91;;;28.60;20.70
72794;BME280;63436;26.334;50.194;2023-04-08T02:44:16;101594.09;;;28.61;20.88
72794;BME280;63436;26.334;50.194;2023-04-08T02:46:41;101596.98;;;27.88;22.05
72794;BME280;63436;26.334;50.194;2023-04-08T02:49:07;101591.97;;;27.48;22.82
72794;BME280;63436;26.334;50.194;2023-04-08T02:51:32;101588.83;;;28.09;22.31
72794;BME280;63436;26.334;50.194;2023-04-08T02:53:58;101594.09;;;28.43;22.71
72794;BME280;63436;26.334;50.194;2023-04-08T02:56:23;101591.36;;;28.24;23.60
72794;BME280;63436;26.334;50.194;2023-04-08T02:58:49;101582.77;;;28.30;24.08
72794;BME280;63436;26.334;50.194;2023-04-08T03:01:14;101591.62;;;28.15;24.57
72794;BME280;63436;26.334;50.194;2023-04-08T03:03:40;101597.18;;;28.01;25.45
72794;BME280;63436;26.334;50.194;2023-04-08T03:06:06;101607.48;;;28.44;25.65
72794;BME280;63436;26.334;50.194;2023-04-08T03:08:31;101609.07;;;28.46;26.40
72794;BME280;63436;26.334;50.194;2023-04-08T03:10:56;101606.68;;;28.30;27.00
72794;BME280;63436;26.334;50.194;2023-04-08T03:13:21;101616.30;;;28.50;27.03
72794;BME280;63436;26.334;50.194;2023-04-08T03:15:47;101626.66;;;26.96;28.99
72794;BME280;63436;26.334;50.194;2023-04-08T03:18:12;101622.65;;;27.48;28.30
72794;BME280;63436;26.334;50.194;2023-04-08T03:20:38;101629.54;;;28.35;27.92
72794;BME280;63436;26.334;50.194;2023-04-08T03:23:04;101632.21;;;28.55;28.29
72794;BME280;63436;26.334;50.194;2023-04-08T03:25:29;101633.73;;;28.13;28.71
72794;BME280;63436;26.334;50.194;2023-04-08T03:27:56;101636.30;;;27.77;29.50
72794;BME280;63436;26.334;50.194;2023-04-08T03:30:20;101639.17;;;28.08;29.59
72794;BME280;63436;26.334;50.194;2023-04-08T03:32:45;101641.97;;;27.71;29.90
72794;BME280;63436;26.334;50.194;2023-04-08T03:35:11;101642.01;;;27.76;29.86
72794;BME280;63436;26.334;50.194;2023-04-08T03:37:36;101639.33;;;28.09;29.72
72794;BME280;63436;26.334;50.194;2023-04-08T03:40:03;101640.85;;;28.29;29.72
72794;BME280;63436;26.334;50.194;2023-04-08T03:42:27;101637.98;;;28.30;30.04
72794;BME280;63436;26.334;50.194;2023-04-08T03:44:52;101640.18;;;28.44;29.40
72794;BME280;63436;26.334;50.194;2023-04-08T03:47:17;101636.91;;;28.39;29.71
72794;BME280;63436;26.334;50.194;2023-04-08T03:49:43;101646.35;;;28.58;30.07
72794;BME280;63436;26.334;50.194;2023-04-08T03:52:08;101644.27;;;27.64;30.88
72794;BME280;63436;26.334;50.194;2023-04-08T03:54:34;101646.43;;;28.82;29.78
72794;BME280;63436;26.334;50.194;2023-04-08T03:57:00;101646.85;;;28.45;29.85
72794;BME280;63436;26.334;50.194;2023-04-08T03:59:26;101651.29;;;28.37;29.86
72794;BME280;63436;26.334;50.194;2023-04-08T04:01:51;101657.83;;;28.48;29.79
72794;BME280;63436;26.334;50.194;2023-04-08T04:04:17;101661.47;;;29.23;29.34
72794;BME280;63436;26.334;50.194;2023-04-08T04:06:42;101663.27;;;28.69;29.53
72794;BME280;63436;26.334;50.194;2023-04-08T04:09:08;101667.32;;;29.33;28.84
72794;BME280;63436;26.334;50.194;2023-04-08T04:11:34;101670.19;;;28.74;28.97
72794;BME280;63436;26.334;50.194;2023-04-08T04:13:59;101668.96;;;29.35;28.08
72794;BME280;63436;26.334;50.194;2023-04-08T04:16:24;101671.82;;;29.29;27.51
72794;BME280;63436;26.334;50.194;2023-04-08T04:18:51;101673.95;;;29.34;27.12
72794;BME280;63436;26.334;50.194;2023-04-08T04:21:15;101673.47;;;29.49;26.84
72794;BME280;63436;26.334;50.194;2023-04-08T04:23:41;101680.34;;;29.22;26.51
72794;BME280;63436;26.334;50.194;2023-04-08T04:26:08;101691.12;;;29.13;26.02
72794;BME280;63436;26.334;50.194;2023-04-08T04:28:32;101706.85;;;28.89;25.67
72794;BME280;63436;26.334;50.194;2023-04-08T04:30:58;101732.44;;;28.74;25.64
72794;BME280;63436;26.334;50.194;2023-04-08T04:33:24;101756.84;;;28.01;26.01
72794;BME280;63436;26.334;50.194;2023-04-08T04:35:48;101764.92;;;26.68;27.05
72794;BME280;63436;26.334;50.194;2023-04-08T04:38:14;101768.52;;;26.51;25.73
72794;BME280;63436;26.334;50.194;2023-04-08T04:40:40;101758.62;;;27.67;24.06
72794;BME280;63436;26.334;50.194;2023-04-08T04:43:05;101740.04;;;28.19;23.01
72794;BME280;63436;26.334;50.194;2023-04-08T04:45:30;101727.58;;;28.57;23.36
72794;BME280;63436;26.334;50.194;2023-04-08T04:47:56;101727.89;;;28.99;23.07
72794;BME280;63436;26.334;50.194;2023-04-08T04:50:21;101742.43;;;29.73;22.79
72794;BME280;63436;26.334;50.194;2023-04-08T04:52:47;101754.61;;;29.91;22.77
72794;BME280;63436;26.334;50.194;2023-04-08T04:55:11;101762.58;;;29.36;22.70
72794;BME280;63436;26.334;50.194;2023-04-08T04:57:37;101770.54;;;30.08;23.30
72794;BME280;63436;26.334;50.194;2023-04-08T05:00:03;101775.42;;;30.40;21.78
72794;BME280;63436;26.334;50.194;2023-04-08T05:02:27;101768.93;;;29.95;21.79
72794;BME280;63436;26.334;50.194;2023-04-08T05:04:53;101766.60;;;30.22;21.94
72794;BME280;63436;26.334;50.194;2023-04-08T05:07:19;101761.45;;;29.49;22.70
72794;BME280;63436;26.334;50.194;2023-04-08T05:09:44;101759.49;;;28.82;24.08
72794;BME280;63436;26.334;50.194;2023-04-08T05:12:10;101759.02;;;28.40;25.18
72794;BME280;63436;26.334;50.194;2023-04-08T05:14:35;101761.08;;;28.50;25.54
72794;BME280;63436;26.334;50.194;2023-04-08T05:17:00;101764.69;;;28.88;25.85
72794;BME280;63436;26.334;50.194;2023-04-08T05:19:26;101767.08;;;28.63;25.84
72794;BME280;63436;26.334;50.194;2023-04-08T05:21:51;101774.97;;;28.10;27.33
72794;BME280;63436;26.334;50.194;2023-04-08T05:24:17;101771.48;;;28.78;27.42
72794;BME280;63436;26.334;50.194;2023-04-08T05:26:43;101771.92;;;28.27;27.79
72794;BME280;63436;26.334;50.194;2023-04-08T05:29:09;101765.40;;;27.75;29.10
72794;BME280;63436;26.334;50.194;2023-04-08T05:31:34;101765.97;;;28.09;28.82
72794;BME280;63436;26.334;50.194;2023-04-08T05:33:59;101776.87;;;27.87;29.29
72794;BME280;63436;26.334;50.194;2023-04-08T05:36:25;101786.84;;;28.10;29.13
72794;BME280;63436;26.334;50.194;2023-04-08T05:38:50;101792.54;;;27.77;29.26
72794;BME280;63436;26.334;50.194;2023-04-08T05:41:16;101788.32;;;27.54;28.86
72794;BME280;63436;26.334;50.194;2023-04-08T05:43:42;101791.50;;;27.83;28.33
72794;BME280;63436;26.334;50.194;2023-04-08T05:46:08;101794.74;;;28.32;28.01
72794;BME280;63436;26.334;50.194;2023-04-08T05:48:32;101798.68;;;28.36;27.49
72794;BME280;63436;26.334;50.194;2023-04-08T05:50:58;101799.41;;;28.86;27.19
72794;BME280;63436;26.334;50.194;2023-04-08T05:53:24;101802.28;;;28.27;27.53
72794;BME280;63436;26.334;50.194;2023-04-08T05:55:49;101798.94;;;27.65;27.52
72794;BME280;63436;26.334;50.194;2023-04-08T05:58:14;101797.59;;;28.01;27.66
72794;BME280;63436;26.334;50.194;2023-04-08T06:00:40;101794.86;;;27.90;27.12
72794;BME280;63436;26.334;50.194;2023-04-08T06:03:05;101792.53;;;28.40;26.40
72794;BME280;63436;26.334;50.194;2023-04-08T06:05:31;101789.68;;;28.30;26.09
72794;BME280;63436;26.334;50.194;2023-04-08T06:07:55;101788.07;;;28.26;25.69
72794;BME280;63436;26.334;50.194;2023-04-08T06:10:20;101788.79;;;28.15;25.04
72794;BME280;63436;26.334;50.194;2023-04-08T06:12:46;101788.90;;;28.35;24.08
72794;BME280;63436;26.334;50.194;2023-04-08T06:15:11;101786.95;;;29.67;23.44
72794;BME280;63436;26.334;50.194;2023-04-08T06:17:37;101790.65;;;28.89;23.45
72794;BME280;63436;26.334;50.194;2023-04-08T06:20:04;101792.54;;;29.21;22.98
72794;BME280;63436;26.334;50.194;2023-04-08T06:22:28;101797.71;;;28.94;22.76
72794;BME280;63436;26.334;50.194;2023-04-08T06:24:53;101804.11;;;28.83;22.86
72794;BME280;63436;26.334;50.194;2023-04-08T06:27:20;101802.27;;;27.93;23.02
72794;BME280;63436;26.334;50.194;2023-04-08T06:29:45;101798.61;;;28.55;22.43
72794;BME280;63436;26.334;50.194;2023-04-08T06:32:11;101793.15;;;28.99;22.04
72794;BME280;63436;26.334;50.194;2023-04-08T06:34:36;101790.26;;;28.44;21.91
72794;BME280;63436;26.334;50.194;2023-04-08T06:37:02;101789.72;;;28.74;21.55
72794;BME280;63436;26.334;50.194;2023-04-08T06:39:28;101789.58;;;28.65;21.56
72794;BME280;63436;26.334;50.194;2023-04-08T06:41:53;101785.86;;;29.14;20.96
72794;BME280;63436;26.334;50.194;2023-04-08T06:44:18;101782.80;;;29.44;20.73
72794;BME280;63436;26.334;50.194;2023-04-08T06:46:43;101781.78;;;28.89;20.21
72794;BME280;63436;26.334;50.194;2023-04-08T06:49:09;101786.58;;;28.17;20.81
72794;BME280;63436;26.334;50.194;2023-04-08T06:51:34;101786.42;;;28.84;19.95
72794;BME280;63436;26.334;50.194;2023-04-08T06:54:00;101788.28;;;29.73;19.50
72794;BME280;63436;26.334;50.194;2023-04-08T06:56:25;101791.46;;;29.65;19.67
72794;BME280;63436;26.334;50.194;2023-04-08T06:58:51;101788.54;;;30.26;19.03
72794;BME280;63436;26.334;50.194;2023-04-08T07:01:16;101783.82;;;29.23;19.60
72794;BME280;63436;26.334;50.194;2023-04-08T07:03:42;101781.12;;;29.27;19.78
72794;BME280;63436;26.334;50.194;2023-04-08T07:06:07;101785.84;;;29.04;19.68
72794;BME280;63436;26.334;50.194;2023-04-08T07:08:33;101783.24;;;29.25;19.80
72794;BME280;63436;26.334;50.194;2023-04-08T07:10:58;101780.68;;;29.88;19.46
72794;BME280;63436;26.334;50.194;2023-04-08T07:13:24;101775.92;;;29.25;19.43
72794;BME280;63436;26.334;50.194;2023-04-08T07:15:49;101779.14;;;29.51;18.96
72794;BME280;63436;26.334;50.194;2023-04-08T07:18:14;101779.35;;;29.58;19.17
72794;BME280;63436;26.334;50.194;2023-04-08T07:20:40;101778.95;;;30.21;19.00
72794;BME280;63436;26.334;50.194;2023-04-08T07:23:06;101778.77;;;30.22;19.11
72794;BME280;63436;26.334;50.194;2023-04-08T07:25:33;101772.85;;;29.03;19.72
72794;BME280;63436;26.334;50.194;2023-04-08T07:27:57;101775.45;;;29.86;19.37
72794;BME280;63436;26.334;50.194;2023-04-08T07:30:23;101778.26;;;30.15;19.19
72794;BME280;63436;26.334;50.194;2023-04-08T07:32:49;101773.66;;;30.23;19.08
72794;BME280;63436;26.334;50.194;2023-04-08T07:35:14;101772.38;;;30.10;19.29
72794;BME280;63436;26.334;50.194;2023-04-08T07:37:40;101774.15;;;30.66;18.72
72794;BME280;63436;26.334;50.194;2023-04-08T07:40:06;101769.90;;;30.28;18.96
72794;BME280;63436;26.334;50.194;2023-04-08T07:42:30;101765.19;;;29.66;18.96
72794;BME280;63436;26.334;50.194;2023-04-08T07:44:55;101760.16;;;30.61;18.38
72794;BME280;63436;26.334;50.194;2023-04-08T07:47:21;101760.83;;;30.25;18.49
72794;BME280;63436;26.334;50.194;2023-04-08T07:49:47;101757.78;;;30.85;18.10
72794;BME280;63436;26.334;50.194;2023-04-08T07:52:13;101757.40;;;30.51;18.33
72794;BME280;63436;26.334;50.194;2023-04-08T07:54:38;101754.33;;;30.53;18.03
72794;BME280;63436;26.334;50.194;2023-04-08T07:57:04;101751.85;;;30.82;17.36
72794;BME280;63436;26.334;50.194;2023-04-08T07:59:31;101746.46;;;31.63;17.12
72794;BME280;63436;26.334;50.194;2023-04-08T08:01:55;101744.04;;;31.65;17.36
72794;BME280;63436;26.334;50.194;2023-04-08T08:04:21;101739.59;;;31.84;16.44
72794;BME280;63436;26.334;50.194;2023-04-08T08:06:46;101742.73;;;30.53;17.31
72794;BME280;63436;26.334;50.194;2023-04-08T08:09:12;101740.12;;;31.37;17.61
72794;BME280;63436;26.334;50.194;2023-04-08T08:11:37;101737.62;;;31.56;17.10
72794;BME280;63436;26.334;50.194;2023-04-08T08:14:03;101735.21;;;30.69;17.49
72794;BME280;63436;26.334;50.194;2023-04-08T08:16:29;101736.44;;;31.26;16.95
72794;BME280;63436;26.334;50.194;2023-04-08T08:18:54;101736.61;;;31.96;16.29
72794;BME280;63436;26.334;50.194;2023-04-08T08:21:19;101731.54;;;32.43;16.27
72794;BME280;63436;26.334;50.194;2023-04-08T08:23:46;101732.48;;;32.62;16.19
72794;BME280;63436;26.334;50.194;2023-04-08T08:26:10;101736.43;;;32.09;17.52
72794;BME280;63436;26.334;50.194;2023-04-08T08:28:36;101730.31;;;32.17;15.34
72794;BME280;63436;26.334;50.194;2023-04-08T08:31:02;101730.08;;;31.99;16.48
72794;BME280;63436;26.334;50.194;2023-04-08T08:33:27;101726.04;;;32.74;15.19
72794;BME280;63436;26.334;50.194;2023-04-08T08:35:52;101726.33;;;32.63;15.28
72794;BME280;63436;26.334;50.194;2023-04-08T08:38:18;101724.29;;;32.16;15.66
72794;BME280;63436;26.334;50.194;2023-04-08T08:40:43;101720.72;;;32.03;16.91
72794;BME280;63436;26.334;50.194;2023-04-08T08:43:08;101720.36;;;31.16;17.23
72794;BME280;63436;26.334;50.194;2023-04-08T08:45:37;101718.19;;;32.08;15.94
72794;BME280;63436;26.334;50.194;2023-04-08T08:47:59;101714.81;;;31.62;15.62
72794;BME280;63436;26.334;50.194;2023-04-08T08:50:24;101714.34;;;31.04;15.22
72794;BME280;63436;26.334;50.194;2023-04-08T08:52:51;101710.34;;;32.33;13.62
72794;BME280;63436;26.334;50.194;2023-04-08T08:55:17;101712.01;;;32.47;13.91
72794;BME280;63436;26.334;50.194;2023-04-08T08:57:41;101702.83;;;33.05;12.50
72794;BME280;63436;26.334;50.194;2023-04-08T09:00:07;101705.72;;;33.02;14.40
72794;BME280;63436;26.334;50.194;2023-04-08T09:02:31;101702.14;;;33.35;13.54
72794;BME280;63436;26.334;50.194;2023-04-08T09:04:58;101699.18;;;32.41;15.75
72794;BME280;63436;26.334;50.194;2023-04-08T09:07:24;101698.57;;;32.99;14.27
72794;BME280;63436;26.334;50.194;2023-04-08T09:09:48;101698.73;;;32.45;14.86
72794;BME280;63436;26.334;50.194;2023-04-08T09:12:13;101700.41;;;33.69;13.92
72794;BME280;63436;26.334;50.194;2023-04-08T09:14:38;101701.46;;;33.65;14.03
72794;BME280;63436;26.334;50.194;2023-04-08T09:17:04;101698.27;;;33.66;13.51
72794;BME280;63436;26.334;50.194;2023-04-08T09:19:29;101691.60;;;33.33;11.92
72794;BME280;63436;26.334;50.194;2023-04-08T09:22:04;101692.21;;;31.85;12.73
72794;BME280;63436;26.334;50.194;2023-04-08T09:24:28;101687.72;;;31.47;14.13
72794;BME280;63436;26.334;50.194;2023-04-08T09:26:46;101683.64;;;32.03;13.39
72794;BME280;63436;26.334;50.194;2023-04-08T09:29:12;101680.67;;;32.98;12.68
72794;BME280;63436;26.334;50.194;2023-04-08T09:31:38;101677.46;;;31.63;13.54
72794;BME280;63436;26.334;50.194;2023-04-08T09:34:09;101671.49;;;32.37;14.46
72794;BME280;63436;26.334;50.194;2023-04-08T09:36:28;101667.28;;;31.36;14.44
72794;BME280;63436;26.334;50.194;2023-04-08T09:38:53;101662.85;;;32.36;14.18
72794;BME280;63436;26.334;50.194;2023-04-08T09:41:20;101663.64;;;32.47;14.33
72794;BME280;63436;26.334;50.194;2023-04-08T09:43:48;101657.43;;;30.79;14.45
72794;BME280;63436;26.334;50.194;2023-04-08T09:46:11;101660.22;;;29.62;14.93
72794;BME280;63436;26.334;50.194;2023-04-08T09:48:39;101654.66;;;31.72;14.53
72794;BME280;63436;26.334;50.194;2023-04-08T09:51:02;101650.96;;;31.74;14.44
72794;BME280;63436;26.334;50.194;2023-04-08T09:53:33;101645.04;;;31.08;14.46
72794;BME280;63436;26.334;50.194;2023-04-08T09:55:54;101635.94;;;33.09;13.39
72794;BME280;63436;26.334;50.194;2023-04-08T09:58:21;101631.89;;;32.19;14.23
72794;BME280;63436;26.334;50.194;2023-04-08T10:00:48;101634.83;;;30.66;15.17
72794;BME280;63436;26.334;50.194;2023-04-08T10:03:12;101627.61;;;31.02;14.39
72794;BME280;63436;26.334;50.194;2023-04-08T10:05:37;101623.71;;;31.52;13.86
72794;BME280;63436;26.334;50.194;2023-04-08T10:07:59;101618.36;;;31.85;13.38
72794;BME280;63436;26.334;50.194;2023-04-08T10:10:24;101615.23;;;33.03;12.15
72794;BME280;63436;26.334;50.194;2023-04-08T10:12:50;101612.03;;;33.68;11.52
72794;BME280;63436;26.334;50.194;2023-04-08T10:15:23;101606.16;;;31.92;12.61
72794;BME280;63436;26.334;50.194;2023-04-08T10:17:40;101608.24;;;33.60;11.08
72794;BME280;63436;26.334;50.194;2023-04-08T10:22:46;101604.59;;;31.69;12.69
72794;BME280;63436;26.334;50.194;2023-04-08T10:27:37;101602.04;;;31.98;12.85
72794;BME280;63436;26.334;50.194;2023-04-08T10:29:48;101600.68;;;31.02;13.61
72794;BME280;63436;26.334;50.194;2023-04-08T10:32:27;101595.28;;;31.25;12.94
72794;BME280;63436;26.334;50.194;2023-04-08T10:34:50;101592.52;;;30.75;12.61
72794;BME280;63436;26.334;50.194;2023-04-08T10:37:04;101596.82;;;30.21;12.52
72794;BME280;63436;26.334;50.194;2023-04-08T10:39:30;101593.44;;;31.13;12.17
72794;BME280;63436;26.334;50.194;2023-04-08T10:41:55;101588.14;;;31.68;11.97
72794;BME280;63436;26.334;50.194;2023-04-08T10:44:22;101588.11;;;32.28;11.89
72794;BME280;63436;26.334;50.194;2023-04-08T10:46:47;101582.31;;;31.37;12.52
72794;BME280;63436;26.334;50.194;2023-04-08T10:49:12;101578.22;;;31.46;11.79
72794;BME280;63436;26.334;50.194;2023-04-08T10:51:38;101579.90;;;30.05;12.71
72794;BME280;63436;26.334;50.194;2023-04-08T10:54:07;101578.25;;;33.42;10.31
72794;BME280;63436;26.334;50.194;2023-04-08T10:56:28;101578.31;;;31.52;11.04
72794;BME280;63436;26.334;50.194;2023-04-08T10:58:55;101570.48;;;31.15;11.67
72794;BME280;63436;26.334;50.194;2023-04-08T11:01:19;101566.56;;;30.61;11.62
72794;BME280;63436;26.334;50.194;2023-04-08T11:03:45;101563.50;;;30.38;11.66
72794;BME280;63436;26.334;50.194;2023-04-08T11:06:11;101557.39;;;31.83;10.25
72794;BME280;63436;26.334;50.194;2023-04-08T11:08:36;101549.95;;;31.18;10.47
72794;BME280;63436;26.334;50.194;2023-04-08T11:11:02;101548.55;;;31.59;10.36
72794;BME280;63436;26.334;50.194;2023-04-08T11:13:27;101545.56;;;30.39;11.76
72794;BME280;63436;26.334;50.194;2023-04-08T11:15:52;101538.95;;;30.86;11.81
72794;BME280;63436;26.334;50.194;2023-04-08T11:18:18;101536.77;;;31.10;11.30
72794;BME280;63436;26.334;50.194;2023-04-08T11:20:43;101527.91;;;31.85;11.18
72794;BME280;63436;26.334;50.194;2023-04-08T11:23:12;101526.28;;;31.53;12.09
72794;BME280;63436;26.334;50.194;2023-04-08T11:25:34;101527.03;;;31.23;11.13
72794;BME280;63436;26.334;50.194;2023-04-08T11:28:00;101523.00;;;30.56;11.45
72794;BME280;63436;26.334;50.194;2023-04-08T11:30:25;101517.73;;;30.80;11.32
72794;BME280;63436;26.334;50.194;2023-04-08T11:32:51;101515.84;;;30.31;10.94
72794;BME280;63436;26.334;50.194;2023-04-08T11:35:16;101514.51;;;29.29;10.95
72794;BME280;63436;26.334;50.194;2023-04-08T11:37:41;101510.83;;;30.92;10.82
72794;BME280;63436;26.334;50.194;2023-04-08T11:40:08;101511.65;;;30.04;10.59
72794;BME280;63436;26.334;50.194;2023-04-08T11:42:32;101505.78;;;31.01;10.49
72794;BME280;63436;26.334;50.194;2023-04-08T11:44:57;101508.54;;;29.80;15.24
72794;BME280;63436;26.334;50.194;2023-04-08T11:49:48;101505.11;;;29.69;13.05
72794;BME280;63436;26.334;50.194;2023-04-08T11:52:13;101507.63;;;28.85;13.32
72794;BME280;63436;26.334;50.194;2023-04-08T11:54:40;101508.60;;;29.51;14.24
72794;BME280;63436;26.334;50.194;2023-04-08T11:57:03;101504.98;;;29.41;14.95
72794;BME280;63436;26.334;50.194;2023-04-08T11:59:29;101505.58;;;29.73;13.73
72794;BME280;63436;26.334;50.194;2023-04-08T12:01:54;101502.45;;;29.83;13.40
72794;BME280;63436;26.334;50.194;2023-04-08T12:04:20;101503.30;;;30.19;13.03
72794;BME280;63436;26.334;50.194;2023-04-08T12:06:45;101500.18;;;30.25;12.93
72794;BME280;63436;26.334;50.194;2023-04-08T12:09:11;101504.16;;;31.79;12.09
72794;BME280;63436;26.334;50.194;2023-04-08T12:11:36;101507.47;;;30.12;13.73
72794;BME280;63436;26.334;50.194;2023-04-08T12:14:01;101505.07;;;29.66;12.18
72794;BME280;63436;26.334;50.194;2023-04-08T12:16:26;101504.06;;;30.56;13.14
72794;BME280;63436;26.334;50.194;2023-04-08T12:18:51;101502.41;;;29.92;12.93
72794;BME280;63436;26.334;50.194;2023-04-08T12:21:17;101500.64;;;29.15;13.79
72794;BME280;63436;26.334;50.194;2023-04-08T12:23:42;101501.01;;;30.18;13.88
72794;BME280;63436;26.334;50.194;2023-04-08T12:26:08;101500.69;;;29.70;13.71
72794;BME280;63436;26.334;50.194;2023-04-08T12:28:34;101504.44;;;30.16;14.14
72794;BME280;63436;26.334;50.194;2023-04-08T12:30:59;101502.81;;;31.67;12.08
72794;BME280;63436;26.334;50.194;2023-04-08T12:33:25;101496.45;;;29.82;13.68
72794;BME280;63436;26.334;50.194;2023-04-08T12:35:50;101495.17;;;30.72;12.33
72794;BME280;63436;26.334;50.194;2023-04-08T12:38:15;101499.26;;;29.97;14.31